Maersk Esmeraldas — HPDM — position and weather

sailwx.info

Track history (hours):
 
Tides and Currents Weather Stations Pressure Air Temp Water Temp Dewpoint Dewpoint Depression Visibility Wind Speed Wind Dir Waves Ship Positions

Maersk Esmeraldas

Last reported at 2017-Oct-17 19:28 UTC. Time now 2017-Oct-17 22:20 UTC.
Position N 22°15' E 115°20'.

Length 366 m; draft 14 m.

Type: Ship (hazmat cat A). MMSI: 357104000.

Date/timePositionNaut miles runAvg speedWind from/ knotsBaromVisibWave heightAir tempDewpointWater temp
2017-Oct-17 19:28N 22°15' E 115°20'714.0
2017-Oct-17 18:57N 22°14' E 115°12'614.0
2017-Oct-17 18:30N 22°14' E 115°05'914.2
2017-Oct-17 17:52N 22°14' E 114°56'614.4
2017-Oct-17 17:28N 22°14' E 114°49'715.0
2017-Oct-17 17:00N 22°16' E 114°42'714.7
2017-Oct-17 16:30N 22°18' E 114°35'612.4
2017-Oct-17 16:00N 22°23' E 114°30'611.1
2017-Oct-17 15:30N 22°28' E 114°27'4 8.7
2017-Oct-17 15:00N 22°31' E 114°24'611.9
2017-Oct-17 14:30N 22°34' E 114°18'1 2.4
2017-Oct-17 14:00N 22°34' E 114°17'0 0.1
2017-Oct-17 13:30N 22°34' E 114°17'0 0.0
2017-Oct-17 13:00N 22°34' E 114°17'0 0.0
2017-Oct-17 12:30N 22°34' E 114°17'0 0.0
2017-Oct-17 12:00N 22°34' E 114°17'0 0.0
2017-Oct-17 11:30N 22°34' E 114°17'0 0.0
2017-Oct-17 11:00N 22°34' E 114°17'0 0.0
2017-Oct-17 10:29N 22°34' E 114°17'0 0.0
2017-Oct-17 10:00N 22°34' E 114°17'0 0.0
2017-Oct-17 09:30N 22°34' E 114°17'0 0.0
2017-Oct-17 09:00N 22°34' E 114°17'0 0.0
2017-Oct-17 08:30N 22°34' E 114°17'0 0.0
2017-Oct-17 07:59N 22°34' E 114°17'0 0.0
2017-Oct-17 07:29N 22°34' E 114°17'0 0.0
2017-Oct-17 07:00N 22°34' E 114°17'0 0.0
2017-Oct-17 06:29N 22°34' E 114°17'0 0.0
2017-Oct-17 05:59N 22°34' E 114°17'0 0.0
2017-Oct-17 05:27N 22°34' E 114°17'0 0.0
2017-Oct-17 05:00N 22°34' E 114°17'0 0.0
2017-Oct-17 04:30N 22°34' E 114°17'0 0.0
2017-Oct-17 04:00N 22°34' E 114°17'0 0.0
2017-Oct-17 03:15N 22°34' E 114°17'0 0.0
2017-Oct-17 03:00N 22°34' E 114°17'0 0.0
2017-Oct-17 02:29N 22°34' E 114°17'0 0.0
2017-Oct-17 01:57N 22°34' E 114°17'0 0.0
2017-Oct-17 00:35N 22°34' E 114°17'0 0.1
2017-Oct-17 00:24N 22°34' E 114°17'0 0.0
2017-Oct-16 23:59N 22°34' E 114°17'0 0.0
2017-Oct-16 23:29N 22°34' E 114°17'0 0.0
2017-Oct-16 22:54N 22°34' E 114°17'0 0.0
2017-Oct-16 22:30N 22°34' E 114°17'0 0.0
2017-Oct-16 21:59N 22°34' E 114°17'0 0.0
2017-Oct-16 21:29N 22°34' E 114°17'0 0.0
2017-Oct-16 20:59N 22°34' E 114°17'0 0.0
2017-Oct-16 20:29N 22°34' E 114°17'0 0.0
2017-Oct-16 19:59N 22°34' E 114°17'0 0.0
2017-Oct-16 19:29N 22°34' E 114°17'0 0.0
2017-Oct-16 19:00N 22°34' E 114°17'0 0.0
2017-Oct-16 18:29N 22°34' E 114°17'0 0.0
2017-Oct-16 17:59N 22°34' E 114°17'0 0.0
2017-Oct-16 17:29N 22°34' E 114°17'0 0.0
2017-Oct-16 16:59N 22°34' E 114°17'0 0.0
2017-Oct-16 16:29N 22°34' E 114°17'0 0.0
2017-Oct-16 15:59N 22°34' E 114°17'0 0.0
2017-Oct-16 15:29N 22°34' E 114°17'0 0.0
2017-Oct-16 14:59N 22°34' E 114°17'0 0.0
2017-Oct-16 14:29N 22°34' E 114°17'0 0.0
2017-Oct-16 13:29N 22°34' E 114°17'0 0.0
2017-Oct-16 12:59N 22°34' E 114°17'0 0.0
2017-Oct-16 12:29N 22°34' E 114°17'0 0.0
2017-Oct-16 11:59N 22°34' E 114°17'0 0.0
2017-Oct-16 11:29N 22°34' E 114°17'0 0.0
2017-Oct-16 10:59N 22°34' E 114°17'0 0.0
2017-Oct-16 10:29N 22°34' E 114°17'0 0.0
2017-Oct-16 09:56N 22°34' E 114°17'  
2017-Oct-13 23:55N 22°19' E 114°07'19 1.1
2017-Oct-13 07:11N 22°22' E 113°47'611.8
2017-Oct-13 06:43N 22°28' E 113°45'312.4
2017-Oct-13 06:29N 22°30' E 113°45'9 0.4
2017-Oct-12 10:02N 22°38' E 113°41'0 0.1
2017-Oct-12 09:50N 22°38' E 113°41'0 0.0
2017-Oct-12 08:59N 22°38' E 113°41'0 0.1
2017-Oct-12 08:29N 22°38' E 113°41'0 0.7
2017-Oct-12 08:00N 22°38' E 113°41'510.8
2017-Oct-12 07:30N 22°33' E 113°44'713.7
2017-Oct-12 07:00N 22°26' E 113°45'  
2017-Oct-08 20:44N 01°16' E 104°07'2 3.9
2017-Oct-08 20:19N 01°15' E 104°05'1 4.1
2017-Oct-08 20:00N 01°15' E 104°04'2 3.9
2017-Oct-08 19:30N 01°15' E 104°02'2 3.6
2017-Oct-08 18:58N 01°15' E 103°60'7 1.1
2017-Oct-08 12:44N 01°16' E 104°07'412.9
2017-Oct-08 12:26N 01°15' E 104°03'613.5
2017-Oct-08 12:00N 01°14' E 103°57'714.3
2017-Oct-08 11:30N 01°12' E 103°51'510.2
2017-Oct-08 11:00N 01°15' E 103°47'2 4.0
2017-Oct-08 10:30N 01°16' E 103°46'0 0.1
2017-Oct-08 09:55N 01°16' E 103°46'0 0.0
2017-Oct-08 09:28N 01°16' E 103°46'0 0.0
2017-Oct-08 08:58N 01°16' E 103°46'0 0.0
2017-Oct-08 08:28N 01°16' E 103°46'0 0.0
2017-Oct-08 07:58N 01°16' E 103°46'0 0.0
2017-Oct-08 07:28N 01°16' E 103°46'0 0.0
2017-Oct-08 06:58N 01°16' E 103°46'0 0.0
2017-Oct-08 06:28N 01°16' E 103°46'0 0.0
2017-Oct-08 05:58N 01°16' E 103°46'0 0.0
2017-Oct-08 05:28N 01°16' E 103°46'0 0.0
2017-Oct-08 04:58N 01°16' E 103°46'0 0.0
2017-Oct-08 04:28N 01°16' E 103°46'0 0.0
2017-Oct-08 03:58N 01°16' E 103°46'0 0.0
2017-Oct-08 03:28N 01°16' E 103°46'0 0.0
2017-Oct-08 02:58N 01°16' E 103°46'0 0.0
2017-Oct-08 02:28N 01°16' E 103°46'0 0.0
2017-Oct-08 01:58N 01°16' E 103°46'0 0.0
2017-Oct-08 01:28N 01°16' E 103°46'0 0.0
2017-Oct-08 00:58N 01°16' E 103°46'0 0.0
2017-Oct-08 00:28N 01°16' E 103°46'0 0.0
2017-Oct-07 23:58N 01°16' E 103°46'0 0.0
2017-Oct-07 23:28N 01°16' E 103°46'0 0.0
2017-Oct-07 22:55N 01°16' E 103°46'0 0.0
2017-Oct-07 22:28N 01°16' E 103°46'0 0.0
2017-Oct-07 21:58N 01°16' E 103°46'0 0.0
2017-Oct-07 21:28N 01°16' E 103°46'0 0.0
2017-Oct-07 20:58N 01°16' E 103°46'0 0.0
2017-Oct-07 20:28N 01°16' E 103°46'0 0.0
2017-Oct-07 19:58N 01°16' E 103°46'0 0.0
2017-Oct-07 19:28N 01°16' E 103°46'  
Track history (hours):
 
Tides and Currents Weather Stations Pressure Air Temp Water Temp Dewpoint Dewpoint Depression Visibility Wind Speed Wind Dir Waves Ship Positions

Maersk Esmeraldas

Last reported at 2017-Oct-17 19:28 UTC. Time now 2017-Oct-17 22:20 UTC.
Position N 22°15' E 115°20'.

Length 366 m; draft 14 m.

Type: Ship (hazmat cat A). MMSI: 357104000.

Date/timePositionNaut miles runAvg speedWind from/ knotsBaromVisibWave heightAir tempDewpointWater temp
2017-Oct-17 19:28N 22°15' E 115°20'714.0
2017-Oct-17 18:57N 22°14' E 115°12'614.0
2017-Oct-17 18:30N 22°14' E 115°05'914.2
2017-Oct-17 17:52N 22°14' E 114°56'614.4
2017-Oct-17 17:28N 22°14' E 114°49'715.0
2017-Oct-17 17:00N 22°16' E 114°42'714.7
2017-Oct-17 16:30N 22°18' E 114°35'612.4
2017-Oct-17 16:00N 22°23' E 114°30'611.1
2017-Oct-17 15:30N 22°28' E 114°27'4 8.7
2017-Oct-17 15:00N 22°31' E 114°24'611.9
2017-Oct-17 14:30N 22°34' E 114°18'1 2.4
2017-Oct-17 14:00N 22°34' E 114°17'0 0.1
2017-Oct-17 13:30N 22°34' E 114°17'0 0.0
2017-Oct-17 13:00N 22°34' E 114°17'0 0.0
2017-Oct-17 12:30N 22°34' E 114°17'0 0.0
2017-Oct-17 12:00N 22°34' E 114°17'0 0.0
2017-Oct-17 11:30N 22°34' E 114°17'0 0.0
2017-Oct-17 11:00N 22°34' E 114°17'0 0.0
2017-Oct-17 10:29N 22°34' E 114°17'0 0.0
2017-Oct-17 10:00N 22°34' E 114°17'0 0.0
2017-Oct-17 09:30N 22°34' E 114°17'0 0.0
2017-Oct-17 09:00N 22°34' E 114°17'0 0.0
2017-Oct-17 08:30N 22°34' E 114°17'0 0.0
2017-Oct-17 07:59N 22°34' E 114°17'0 0.0
2017-Oct-17 07:29N 22°34' E 114°17'0 0.0
2017-Oct-17 07:00N 22°34' E 114°17'0 0.0
2017-Oct-17 06:29N 22°34' E 114°17'0 0.0
2017-Oct-17 05:59N 22°34' E 114°17'0 0.0
2017-Oct-17 05:27N 22°34' E 114°17'0 0.0
2017-Oct-17 05:00N 22°34' E 114°17'0 0.0
2017-Oct-17 04:30N 22°34' E 114°17'0 0.0
2017-Oct-17 04:00N 22°34' E 114°17'0 0.0
2017-Oct-17 03:15N 22°34' E 114°17'0 0.0
2017-Oct-17 03:00N 22°34' E 114°17'0 0.0
2017-Oct-17 02:29N 22°34' E 114°17'0 0.0
2017-Oct-17 01:57N 22°34' E 114°17'0 0.0
2017-Oct-17 00:35N 22°34' E 114°17'0 0.1
2017-Oct-17 00:24N 22°34' E 114°17'0 0.0
2017-Oct-16 23:59N 22°34' E 114°17'0 0.0
2017-Oct-16 23:29N 22°34' E 114°17'0 0.0
2017-Oct-16 22:54N 22°34' E 114°17'0 0.0
2017-Oct-16 22:30N 22°34' E 114°17'0 0.0
2017-Oct-16 21:59N 22°34' E 114°17'0 0.0
2017-Oct-16 21:29N 22°34' E 114°17'0 0.0
2017-Oct-16 20:59N 22°34' E 114°17'0 0.0
2017-Oct-16 20:29N 22°34' E 114°17'0 0.0
2017-Oct-16 19:59N 22°34' E 114°17'0 0.0
2017-Oct-16 19:29N 22°34' E 114°17'0 0.0
2017-Oct-16 19:00N 22°34' E 114°17'0 0.0
2017-Oct-16 18:29N 22°34' E 114°17'0 0.0
2017-Oct-16 17:59N 22°34' E 114°17'0 0.0
2017-Oct-16 17:29N 22°34' E 114°17'0 0.0
2017-Oct-16 16:59N 22°34' E 114°17'0 0.0
2017-Oct-16 16:29N 22°34' E 114°17'0 0.0
2017-Oct-16 15:59N 22°34' E 114°17'0 0.0
2017-Oct-16 15:29N 22°34' E 114°17'0 0.0
2017-Oct-16 14:59N 22°34' E 114°17'0 0.0
2017-Oct-16 14:29N 22°34' E 114°17'0 0.0
2017-Oct-16 13:29N 22°34' E 114°17'0 0.0
2017-Oct-16 12:59N 22°34' E 114°17'0 0.0
2017-Oct-16 12:29N 22°34' E 114°17'0 0.0
2017-Oct-16 11:59N 22°34' E 114°17'0 0.0
2017-Oct-16 11:29N 22°34' E 114°17'0 0.0
2017-Oct-16 10:59N 22°34' E 114°17'0 0.0
2017-Oct-16 10:29N 22°34' E 114°17'0 0.0
2017-Oct-16 09:56N 22°34' E 114°17'  
2017-Oct-13 23:55N 22°19' E 114°07'19 1.1
2017-Oct-13 07:11N 22°22' E 113°47'611.8
2017-Oct-13 06:43N 22°28' E 113°45'312.4
2017-Oct-13 06:29N 22°30' E 113°45'9 0.4
2017-Oct-12 10:02N 22°38' E 113°41'0 0.1
2017-Oct-12 09:50N 22°38' E 113°41'0 0.0
2017-Oct-12 08:59N 22°38' E 113°41'0 0.1
2017-Oct-12 08:29N 22°38' E 113°41'0 0.7
2017-Oct-12 08:00N 22°38' E 113°41'510.8
2017-Oct-12 07:30N 22°33' E 113°44'713.7
2017-Oct-12 07:00N 22°26' E 113°45'  
2017-Oct-08 20:44N 01°16' E 104°07'2 3.9
2017-Oct-08 20:19N 01°15' E 104°05'1 4.1
2017-Oct-08 20:00N 01°15' E 104°04'2 3.9
2017-Oct-08 19:30N 01°15' E 104°02'2 3.6
2017-Oct-08 18:58N 01°15' E 103°60'7 1.1
2017-Oct-08 12:44N 01°16' E 104°07'412.9
2017-Oct-08 12:26N 01°15' E 104°03'613.5
2017-Oct-08 12:00N 01°14' E 103°57'714.3
2017-Oct-08 11:30N 01°12' E 103°51'510.2
2017-Oct-08 11:00N 01°15' E 103°47'2 4.0
2017-Oct-08 10:30N 01°16' E 103°46'0 0.1
2017-Oct-08 09:55N 01°16' E 103°46'0 0.0
2017-Oct-08 09:28N 01°16' E 103°46'0 0.0
2017-Oct-08 08:58N 01°16' E 103°46'0 0.0
2017-Oct-08 08:28N 01°16' E 103°46'0 0.0
2017-Oct-08 07:58N 01°16' E 103°46'0 0.0
2017-Oct-08 07:28N 01°16' E 103°46'0 0.0
2017-Oct-08 06:58N 01°16' E 103°46'0 0.0
2017-Oct-08 06:28N 01°16' E 103°46'0 0.0
2017-Oct-08 05:58N 01°16' E 103°46'0 0.0
2017-Oct-08 05:28N 01°16' E 103°46'0 0.0
2017-Oct-08 04:58N 01°16' E 103°46'0 0.0
2017-Oct-08 04:28N 01°16' E 103°46'0 0.0
2017-Oct-08 03:58N 01°16' E 103°46'0 0.0
2017-Oct-08 03:28N 01°16' E 103°46'0 0.0
2017-Oct-08 02:58N 01°16' E 103°46'0 0.0
2017-Oct-08 02:28N 01°16' E 103°46'0 0.0
2017-Oct-08 01:58N 01°16' E 103°46'0 0.0
2017-Oct-08 01:28N 01°16' E 103°46'0 0.0
2017-Oct-08 00:58N 01°16' E 103°46'0 0.0
2017-Oct-08 00:28N 01°16' E 103°46'0 0.0
2017-Oct-07 23:58N 01°16' E 103°46'0 0.0
2017-Oct-07 23:28N 01°16' E 103°46'0 0.0
2017-Oct-07 22:55N 01°16' E 103°46'0 0.0
2017-Oct-07 22:28N 01°16' E 103°46'0 0.0
2017-Oct-07 21:58N 01°16' E 103°46'0 0.0
2017-Oct-07 21:28N 01°16' E 103°46'0 0.0
2017-Oct-07 20:58N 01°16' E 103°46'0 0.0
2017-Oct-07 20:28N 01°16' E 103°46'0 0.0
2017-Oct-07 19:58N 01°16' E 103°46'0 0.0
2017-Oct-07 19:28N 01°16' E 103°46'  

Dump ship's entire track history